Airfield :







YOU CAN JOIN US ON...

 
LOGIN :

Register | Disclaimer

   EN    FR    IT 

 









Legend :    VFR   Marginal VFR   IFR   Intensive IFR   Very Intensive IFR
Visi :
Ceiling :
>= 8 km
>= 3000ft
5 to 8 km
1000 to 3000 ft
1500m to 5 km
500 to 1000 ft
800 to 1500m
200 to 500 ft
< 800m
< 200 ft
Symbols :   Thunderstorms  Fog  Heavy snow  Heavy precipitations  Wind > 20 kt






- Airport Elevation : 522 ft
- IATA code : YBG


CYBG - CFB Bagotville

CURRENT METAR :
  • 030127Z 11005KT 5SM R11/3000FT BR BCFG FEW008 BKN027 OVC050 04/04 A2999 RMK ST2SC6SC1 MOON DIMLY VISBL SLP165

EXPIRED METARs :
  • 030100Z CCA 00000KT 3SM R11/3000FT BR BCFG SCT008 OVC027 03/02 A2999 RMK FG2ST2SC5 VIS LWR W FG BANK ALQDS VIS 1/2 SLP164
  • 030000Z 30002KT 5SM R11/3500FT BR BCFG SCT008 OVC030 03/03 A2996 RMK ST3SC5 FG BANK S VIS 1/2 SLP154
  • 022329Z 00000KT 1SM R11/2800FT PRFG BR BKN008 BKN030 OVC050 03/03 A2995 RMK FG2ST2SC2SC1 FG BANK ALQDS VIS 3/8 SLP150
  • 022315Z 00000KT 3SM R11/3000FT BR BCFG FEW008 BKN030 OVC050 03/03 A2994 RMK ST2SC5SC1 FG BANK SE VIS 1/2 SLP148

TAF TAF CYBG
Valid from the 03 at 00:00 until the 04 at 00:00 UTC


022330Z 0300/0324 VRB03KT 3/8SM -DZ FG FEW008 BKN030 OVC050
TEMPO 0300/0302 4SM BR
BECMG 0300/0302 10008KT
FM030200 10008KT P6SM FEW008 OVC020
TEMPO 0302/0304 2SM BR
FM030900 09008KT 6SM BR SCT005 OVC015
PROB30 0309/0313 1SM BR
FM031300 09010KT P6SM FEW015 OVC020 RMK NXT FCST BY 030600Z



MET'MAP, your aeronautical weather chart ! - Copyright ORBIFLY December 2007 - Disclaimer

ORBIFLY MET'MAP TEAM :

Programming & Development : Alexandra Zaïnal
Concept & original design : Baudouin d'Aumeries
Assistance for programming : Marc-Olivier Méhu
Technical & hardware support : Manuel Goepfert

Contact : metmap@orbifly.com




SOURCES & CREDITS :

   NOAA